createdAt,value
2022-09-06T00:01:12.150Z,4.55
2022-09-06T00:03:41.774Z,4.82
2022-09-06T00:06:13.371Z,5.30
2022-09-06T00:08:42.977Z,5.40
2022-09-06T00:11:12.331Z,4.93
2022-09-06T00:13:41.518Z,5.07
2022-09-06T00:16:12.850Z,6.75
2022-09-06T00:18:42.093Z,6.05
2022-09-06T00:21:20.784Z,5.90
2022-09-06T00:23:49.684Z,5.47
2022-09-06T00:26:18.170Z,5.28
2022-09-06T00:28:47.468Z,6.18
2022-09-06T00:31:18.415Z,5.32
2022-09-06T00:33:48.109Z,5.88
2022-09-06T00:36:18.887Z,5.85
2022-09-06T00:38:47.415Z,6.07
2022-09-06T00:41:18.031Z,6.10
2022-09-06T00:43:46.972Z,5.82
2022-09-06T00:46:18.558Z,6.25
2022-09-06T00:48:50.257Z,6.40
2022-09-06T00:51:23.887Z,6.32
2022-09-06T00:53:53.079Z,6.63
2022-09-06T00:56:22.308Z,6.25
2022-09-06T00:58:51.042Z,6.78
2022-09-06T01:01:20.370Z,6.97
2022-09-06T01:03:49.182Z,6.80
2022-09-06T01:06:25.686Z,7.47
2022-09-06T01:09:07.037Z,7.25
2022-09-06T01:11:55.185Z,6.93
2022-09-06T01:14:37.808Z,6.32
2022-09-06T01:17:16.746Z,6.72
2022-09-06T01:20:10.990Z,7.15
2022-09-06T01:23:06.170Z,7.97
2022-09-06T01:25:40.205Z,7.78
2022-09-06T01:28:27.440Z,7.82
2022-09-06T01:31:06.195Z,7.30
2022-09-06T01:33:42.707Z,7.40
2022-09-06T01:36:16.132Z,7.53
2022-09-06T01:38:45.818Z,7.68
2022-09-06T01:41:14.180Z,7.68
2022-09-06T01:43:48.481Z,7.00
2022-09-06T01:46:26.412Z,8.02
2022-09-06T01:49:22.610Z,7.75
2022-09-06T01:52:05.819Z,7.78
2022-09-06T01:54:48.250Z,8.60
2022-09-06T01:57:30.367Z,8.82
2022-09-06T02:00:08.504Z,7.50
2022-09-06T02:02:52.744Z,7.07
2022-09-06T02:05:27.448Z,5.93
2022-09-06T02:08:00.590Z,6.32
2022-09-06T02:10:34.833Z,7.57
2022-09-06T02:13:07.566Z,7.80
2022-09-06T02:15:40.408Z,7.15
2022-09-06T02:18:12.959Z,7.25
2022-09-06T02:20:43.759Z,7.75
2022-09-06T02:23:13.955Z,7.65
2022-09-06T02:25:48.781Z,7.38
2022-09-06T02:28:18.121Z,7.28
2022-09-06T02:30:51.896Z,7.85
2022-09-06T02:33:24.001Z,7.43
2022-09-06T02:35:55.576Z,7.45
2022-09-06T02:38:26.633Z,8.15
2022-09-06T02:40:56.753Z,8.65
2022-09-06T02:43:26.144Z,7.18
2022-09-06T02:45:55.829Z,7.35
2022-09-06T02:48:24.583Z,7.10
2022-09-06T02:50:53.783Z,6.40
2022-09-06T02:53:22.251Z,6.32
2022-09-06T02:55:51.194Z,6.72
2022-09-06T02:58:19.527Z,7.53
2022-09-06T03:00:48.380Z,8.02
2022-09-06T03:03:19.091Z,8.60
2022-09-06T03:05:48.659Z,9.23
2022-09-06T03:08:18.158Z,8.63
2022-09-06T03:10:50.379Z,8.98
2022-09-06T03:13:19.284Z,7.25
2022-09-06T03:15:52.651Z,6.45
2022-09-06T03:18:23.065Z,5.68
2022-09-06T03:20:51.981Z,5.45
2022-09-06T03:23:22.947Z,5.57
2022-09-06T03:25:51.626Z,5.88
2022-09-06T03:28:21.842Z,7.38
2022-09-06T03:30:51.970Z,7.00
2022-09-06T03:33:23.091Z,7.53
2022-09-06T03:35:54.391Z,6.93
2022-09-06T03:38:23.976Z,6.80
2022-09-06T03:40:52.874Z,7.15
2022-09-06T03:43:23.650Z,7.28
2022-09-06T03:45:54.760Z,7.63
2022-09-06T03:48:26.799Z,7.40
2022-09-06T03:50:58.236Z,7.32
2022-09-06T03:53:28.183Z,7.60
2022-09-06T03:55:59.120Z,7.97
2022-09-06T03:58:32.057Z,7.70
2022-09-06T04:01:02.182Z,8.43
2022-09-06T04:03:32.413Z,8.35
2022-09-06T04:06:01.038Z,9.38
2022-09-06T04:08:30.325Z,6.95
2022-09-06T04:11:00.463Z,6.88
2022-09-06T04:13:30.293Z,10.02
2022-09-06T04:15:59.324Z,12.27
2022-09-06T04:18:28.274Z,10.52
2022-09-06T04:20:59.162Z,7.47
2022-09-06T04:23:29.028Z,6.40
2022-09-06T04:26:00.035Z,6.45
2022-09-06T04:28:29.165Z,6.50
2022-09-06T04:31:04.325Z,6.65
2022-09-06T04:33:34.822Z,7.85
2022-09-06T04:36:08.944Z,8.68
2022-09-06T04:38:38.931Z,8.80
2022-09-06T04:41:08.909Z,6.75
2022-09-06T04:43:37.706Z,6.78
2022-09-06T04:46:08.163Z,9.32
2022-09-06T04:48:37.014Z,12.25
2022-09-06T04:51:07.526Z,11.98
2022-09-06T04:53:36.119Z,9.20
2022-09-06T04:56:04.529Z,7.78
2022-09-06T04:58:33.473Z,8.13
2022-09-06T05:01:02.590Z,7.63
2022-09-06T05:03:30.947Z,8.10
2022-09-06T05:08:59.174Z,8.38
2022-09-06T05:11:27.608Z,12.13
2022-09-06T05:13:57.092Z,13.15
2022-09-06T05:16:25.516Z,11.85
2022-09-06T05:18:54.740Z,12.25
2022-09-06T05:21:24.697Z,8.60
2022-09-06T05:23:57.986Z,10.63
2022-09-06T05:26:27.282Z,11.77
2022-09-06T05:28:56.251Z,18.25
2022-09-06T05:31:29.523Z,14.02
2022-09-06T05:33:58.482Z,11.23
2022-09-06T05:36:30.187Z,13.95
2022-09-06T05:38:59.410Z,13.35
2022-09-06T05:41:28.419Z,15.27
2022-09-06T05:43:57.495Z,15.70
2022-09-06T05:46:26.919Z,16.55
2022-09-06T05:48:56.156Z,17.27
2022-09-06T05:51:25.083Z,15.18
2022-09-06T05:53:55.338Z,15.75
2022-09-06T05:56:25.227Z,16.17
2022-09-06T05:58:54.084Z,16.65
2022-09-06T06:01:25.073Z,13.75
2022-09-06T06:03:55.916Z,21.80
2022-09-06T06:06:25.682Z,20.05
2022-09-06T06:08:56.287Z,17.35
2022-09-06T06:11:26.407Z,23.63
2022-09-06T06:13:55.449Z,19.90
2022-09-06T06:16:25.363Z,22.38
2022-09-06T06:18:53.799Z,19.85
2022-09-06T06:21:24.045Z,22.20
2022-09-06T06:23:55.557Z,21.20
2022-09-06T06:26:24.435Z,23.67
2022-09-06T06:28:53.375Z,21.50
2022-09-06T06:31:22.600Z,22.08
2022-09-06T06:33:52.322Z,21.48
2022-09-06T06:36:22.747Z,19.85
2022-09-06T06:38:54.007Z,21.15
2022-09-06T06:41:25.665Z,21.98
2022-09-06T06:43:54.752Z,21.88
2022-09-06T06:46:25.889Z,21.20
2022-09-06T06:48:55.587Z,20.95
2022-09-06T06:51:26.736Z,21.13
2022-09-06T06:53:56.762Z,19.55
2022-09-06T06:56:28.283Z,19.25
2022-09-06T06:58:58.680Z,20.08
2022-09-06T07:01:29.125Z,17.45
2022-09-06T07:03:58.861Z,15.88
2022-09-06T07:09:19.662Z,13.82
2022-09-06T07:11:50.773Z,12.18
2022-09-06T07:14:19.869Z,11.27
2022-09-06T07:16:48.292Z,11.13
2022-09-06T07:22:06.399Z,11.50
2022-09-06T07:24:35.394Z,12.10
2022-09-06T07:29:53.613Z,12.73
2022-09-06T07:32:21.996Z,11.40
2022-09-06T07:34:50.882Z,12.05
2022-09-06T07:37:19.546Z,10.65
2022-09-06T07:39:47.982Z,9.77
2022-09-06T07:42:18.129Z,10.55
2022-09-06T07:44:46.694Z,9.75
2022-09-06T07:53:15.546Z,8.95
2022-09-06T07:55:44.869Z,8.15
2022-09-06T07:58:14.696Z,9.32
2022-09-06T08:00:43.309Z,9.57
2022-09-06T08:03:11.702Z,10.25
2022-09-06T08:11:18.473Z,9.75
2022-09-06T08:13:51.251Z,10.10
2022-09-06T08:16:20.155Z,9.68
2022-09-06T08:18:53.476Z,9.93
2022-09-06T08:21:23.882Z,9.50
2022-09-06T08:23:54.619Z,8.68
2022-09-06T08:26:24.663Z,8.45
2022-09-06T08:29:00.604Z,8.23
2022-09-06T08:31:30.252Z,7.68
2022-09-06T08:34:00.573Z,8.07
2022-09-06T08:36:31.164Z,8.48
2022-09-06T08:39:00.450Z,7.68
2022-09-06T08:41:34.269Z,7.47
2022-09-06T08:47:00.853Z,5.78
2022-09-06T08:49:33.162Z,6.30
2022-09-06T08:52:24.915Z,6.22
2022-09-06T08:55:01.671Z,5.90
2022-09-06T08:57:45.633Z,6.15
2022-09-06T09:00:15.573Z,5.40
2022-09-06T09:02:46.573Z,5.50
2022-09-06T09:05:23.266Z,5.68
2022-09-06T09:08:01.285Z,4.95
2022-09-06T09:10:33.083Z,4.50
2022-09-06T09:13:04.721Z,4.82
2022-09-06T09:15:40.458Z,4.10
2022-09-06T09:18:09.387Z,4.22
2022-09-06T09:20:39.168Z,4.68
2022-09-06T09:23:07.566Z,4.60
2022-09-06T09:25:39.538Z,4.57
2022-09-06T09:28:15.306Z,4.78
2022-09-06T09:30:50.982Z,4.22
2022-09-06T09:33:29.868Z,3.70
2022-09-06T09:36:00.669Z,3.70
2022-09-06T09:38:32.012Z,3.67
2022-09-06T09:41:02.865Z,4.30
2022-09-06T09:43:32.790Z,3.63
2022-09-06T09:46:17.811Z,3.50
2022-09-06T09:49:02.279Z,3.42
2022-09-06T09:51:32.074Z,3.20
2022-09-06T09:54:03.761Z,3.00
2022-09-06T09:56:38.240Z,3.10
2022-09-06T09:59:19.207Z,3.15
2022-09-06T10:01:49.383Z,2.92
2022-09-06T10:04:43.262Z,3.10
2022-09-06T10:07:14.862Z,2.72
2022-09-06T10:09:45.926Z,2.50
2022-09-06T10:12:19.258Z,2.80
2022-09-06T10:14:49.646Z,2.97
2022-09-06T10:17:31.067Z,3.03
2022-09-06T10:20:03.532Z,2.78
2022-09-06T10:22:33.785Z,2.50
2022-09-06T10:25:43.007Z,2.50
2022-09-06T10:28:28.585Z,2.97
2022-09-06T10:31:07.356Z,2.88
2022-09-06T10:33:52.291Z,2.60
2022-09-06T10:36:27.924Z,2.50
2022-09-06T10:39:03.705Z,2.35
2022-09-06T10:41:44.812Z,2.60
2022-09-06T10:44:35.559Z,2.80
2022-09-06T10:47:10.624Z,2.70
2022-09-06T10:49:45.414Z,2.20
2022-09-06T10:52:19.462Z,2.25
2022-09-06T10:54:47.895Z,2.75
2022-09-06T11:00:13.656Z,2.17
2022-09-06T11:02:48.884Z,2.28
2022-09-06T11:05:39.421Z,2.45
2022-09-06T11:11:08.106Z,2.50
2022-09-06T11:13:36.710Z,2.03
2022-09-06T11:16:10.160Z,2.63
2022-09-06T11:18:44.065Z,2.10
2022-09-06T11:21:50.687Z,2.03
2022-09-06T11:24:27.031Z,2.33
2022-09-06T11:27:03.258Z,2.25
2022-09-06T11:29:33.476Z,1.80
2022-09-06T11:32:19.057Z,1.80
2022-09-06T11:34:55.595Z,1.75
2022-09-06T11:37:29.180Z,1.70
2022-09-06T11:40:29.490Z,1.90
2022-09-06T11:43:13.318Z,1.90
2022-09-06T11:45:46.559Z,1.83
2022-09-06T11:48:36.475Z,1.90
2022-09-06T11:51:11.010Z,1.48
2022-09-06T11:54:05.380Z,1.75
2022-09-06T11:56:40.864Z,1.60
2022-09-06T11:59:19.566Z,1.35
2022-09-06T12:02:01.264Z,2.00
2022-09-06T12:05:16.710Z,2.13
2022-09-06T12:08:32.701Z,1.50
2022-09-06T12:11:21.718Z,1.90
2022-09-06T12:13:56.298Z,1.70
2022-09-06T12:16:26.150Z,1.90
2022-09-06T12:18:58.173Z,1.70
2022-09-06T12:21:52.888Z,1.75
2022-09-06T12:24:52.498Z,1.63
2022-09-06T12:27:24.515Z,1.70
2022-09-06T12:29:59.601Z,2.20
2022-09-06T12:32:36.090Z,1.75
2022-09-06T12:38:00.648Z,1.80
2022-09-06T12:40:31.785Z,1.75
2022-09-06T12:43:04.511Z,1.60
2022-09-06T12:45:34.357Z,1.58
2022-09-06T12:48:09.105Z,1.63
2022-09-06T12:50:39.176Z,1.50
2022-09-06T12:53:24.463Z,1.83
2022-09-06T12:56:05.576Z,1.73
2022-09-06T12:58:36.485Z,2.20
2022-09-06T13:01:11.353Z,2.03
2022-09-06T13:03:45.564Z,1.95
2022-09-06T13:06:26.018Z,1.50
2022-09-06T13:08:58.069Z,1.50
2022-09-06T13:11:31.554Z,1.92
2022-09-06T13:14:14.026Z,1.70
2022-09-06T13:16:46.820Z,1.77
2022-09-06T13:19:18.896Z,1.92
2022-09-06T13:21:47.987Z,1.80
2022-09-06T13:24:21.149Z,1.60
2022-09-06T13:26:50.727Z,1.75
2022-09-06T13:29:31.352Z,1.77
2022-09-06T13:32:03.677Z,1.60
2022-09-06T13:34:34.132Z,1.80
2022-09-06T13:37:06.344Z,2.03
2022-09-06T13:39:37.574Z,2.10
2022-09-06T13:42:08.368Z,1.55
2022-09-06T13:44:39.810Z,1.70
2022-09-06T13:47:08.786Z,1.50
2022-09-06T13:49:37.111Z,1.67
2022-09-06T13:52:06.457Z,1.67
2022-09-06T13:54:35.982Z,1.60
2022-09-06T13:57:04.740Z,1.70
2022-09-06T13:59:33.878Z,1.83
2022-09-06T14:02:07.211Z,1.90
2022-09-06T14:04:36.224Z,1.50
2022-09-06T14:07:05.564Z,1.63
2022-09-06T14:09:34.660Z,1.63
2022-09-06T14:12:03.232Z,1.70
2022-09-06T14:14:31.606Z,1.50
2022-09-06T14:17:00.401Z,1.60
2022-09-06T14:19:30.134Z,1.30
2022-09-06T14:21:58.511Z,1.70
2022-09-06T14:24:26.893Z,1.60
2022-09-06T14:26:55.270Z,1.60
2022-09-06T14:29:24.031Z,1.45
2022-09-06T14:31:52.447Z,1.95
2022-09-06T14:34:21.984Z,1.67
2022-09-06T14:36:51.988Z,1.60
2022-09-06T14:39:20.510Z,1.85
2022-09-06T14:41:49.275Z,1.63
2022-09-06T14:44:18.156Z,1.60
2022-09-06T14:46:47.731Z,1.77
2022-09-06T14:49:16.095Z,1.75
2022-09-06T14:51:45.930Z,1.90
2022-09-06T14:54:15.850Z,1.63
2022-09-06T14:56:44.697Z,2.40
2022-09-06T14:59:13.414Z,1.80
2022-09-06T15:01:42.084Z,1.67
2022-09-06T15:04:12.278Z,1.75
2022-09-06T15:06:44.919Z,1.50
2022-09-06T15:09:16.507Z,1.60
2022-09-06T15:11:48.026Z,1.45
2022-09-06T15:14:18.153Z,1.63
2022-09-06T15:16:49.784Z,2.08
2022-09-06T15:19:21.387Z,1.90
2022-09-06T15:21:50.256Z,2.13
2022-09-06T15:24:21.096Z,1.98
2022-09-06T15:26:49.554Z,2.10
2022-09-06T15:29:19.532Z,2.25
2022-09-06T15:31:50.894Z,2.25
2022-09-06T15:34:20.477Z,2.75
2022-09-06T15:36:49.430Z,2.25
2022-09-06T15:39:20.574Z,2.00
2022-09-06T15:41:51.547Z,2.45
2022-09-06T15:44:22.000Z,2.40
2022-09-06T15:46:52.001Z,2.05
2022-09-06T15:49:27.483Z,2.55
2022-09-06T15:51:57.641Z,2.50
2022-09-06T15:54:42.613Z,2.42
2022-09-06T15:57:11.497Z,2.00
2022-09-06T15:59:40.901Z,2.17
2022-09-06T16:02:09.696Z,2.10
2022-09-06T16:04:38.908Z,2.00
2022-09-06T16:07:07.511Z,2.05
2022-09-06T16:09:38.199Z,1.92
2022-09-06T16:12:07.285Z,2.38
2022-09-06T16:14:35.695Z,1.98
2022-09-06T16:17:04.921Z,2.33
2022-09-06T16:19:33.810Z,2.08
2022-09-06T16:22:02.477Z,2.50
2022-09-06T16:24:31.570Z,2.20
2022-09-06T16:27:01.276Z,2.30
2022-09-06T16:29:30.139Z,2.25
2022-09-06T16:32:00.527Z,1.98
2022-09-06T16:34:29.278Z,2.33
2022-09-06T16:36:58.071Z,2.28
2022-09-06T16:39:26.984Z,2.30
2022-09-06T16:41:55.804Z,2.00
2022-09-06T16:44:26.262Z,2.10
2022-09-06T16:46:57.180Z,2.55
2022-09-06T16:49:25.681Z,2.17
2022-09-06T16:51:54.051Z,2.30
2022-09-06T16:54:22.498Z,2.65
2022-09-06T16:56:50.873Z,3.72
2022-09-06T16:59:19.663Z,2.40
2022-09-06T17:01:49.600Z,2.08
2022-09-06T17:04:18.682Z,3.40
2022-09-06T17:06:47.404Z,3.35
2022-09-06T17:09:18.639Z,2.90
2022-09-06T17:11:50.460Z,2.30
2022-09-06T17:14:19.393Z,3.03
2022-09-06T17:17:06.843Z,2.60
2022-09-06T17:19:37.585Z,2.75
2022-09-06T17:22:06.459Z,2.58
2022-09-06T17:24:35.708Z,3.25
2022-09-06T17:27:04.210Z,2.50
2022-09-06T17:29:32.821Z,2.65
2022-09-06T17:32:04.497Z,2.20
2022-09-06T17:34:33.632Z,2.88
2022-09-06T17:37:02.324Z,2.50
2022-09-06T17:39:30.908Z,2.45
2022-09-06T17:42:00.496Z,2.60
2022-09-06T17:44:28.877Z,2.63
2022-09-06T17:47:14.437Z,2.75
2022-09-06T17:49:44.767Z,2.50
2022-09-06T17:52:13.904Z,2.65
2022-09-06T17:54:42.683Z,2.78
2022-09-06T17:57:11.047Z,3.05
2022-09-06T17:59:40.194Z,2.80
2022-09-06T18:02:08.950Z,2.70
2022-09-06T18:04:38.288Z,2.35
2022-09-06T18:07:08.028Z,2.67
2022-09-06T18:09:37.711Z,2.50
2022-09-06T18:12:06.792Z,3.00
2022-09-06T18:14:35.991Z,2.53
2022-09-06T18:17:04.412Z,2.65
2022-09-06T18:19:33.158Z,2.90
2022-09-06T18:22:01.605Z,2.58
2022-09-06T18:24:31.994Z,3.10
2022-09-06T18:27:03.198Z,3.78
2022-09-06T18:29:32.810Z,3.20
2022-09-06T18:32:02.023Z,2.55
2022-09-06T18:34:30.841Z,2.58
2022-09-06T18:36:59.763Z,2.70
2022-09-06T18:39:29.156Z,3.00
2022-09-06T18:42:02.067Z,3.38
2022-09-06T18:44:32.604Z,2.75
2022-09-06T18:47:02.650Z,2.50
2022-09-06T18:49:32.537Z,3.03
2022-09-06T18:52:01.389Z,3.17
2022-09-06T18:54:31.140Z,2.70
2022-09-06T18:57:00.943Z,2.95
2022-09-06T18:59:29.893Z,2.85
2022-09-06T19:01:58.489Z,2.70
2022-09-06T19:04:27.135Z,2.47
2022-09-06T19:06:55.504Z,2.58
2022-09-06T19:09:24.190Z,2.80
2022-09-06T19:11:53.232Z,3.30
2022-09-06T19:14:23.259Z,3.15
2022-09-06T19:16:53.844Z,3.38
2022-09-06T19:19:23.107Z,2.90
2022-09-06T19:21:52.411Z,4.07
2022-09-06T19:24:22.620Z,3.88
2022-09-06T19:26:52.770Z,4.28
2022-09-06T19:29:21.928Z,4.10
2022-09-06T19:31:52.908Z,3.95
2022-09-06T19:34:22.040Z,3.65
2022-09-06T19:36:55.553Z,3.65
2022-09-06T19:39:31.183Z,3.78
2022-09-06T19:42:02.518Z,3.80
2022-09-06T19:44:30.910Z,3.00
2022-09-06T19:47:01.326Z,3.20
2022-09-06T19:49:31.178Z,4.32
2022-09-06T19:51:59.536Z,4.00
2022-09-06T19:54:28.808Z,3.97
2022-09-06T19:56:57.160Z,3.38
2022-09-06T19:59:25.868Z,3.38
2022-09-06T20:01:54.750Z,3.60
2022-09-06T20:04:25.208Z,3.70
2022-09-06T20:06:53.620Z,4.65
2022-09-06T20:09:22.757Z,4.95
2022-09-06T20:11:51.722Z,5.13
2022-09-06T20:14:20.089Z,5.50
2022-09-06T20:16:49.060Z,4.55
2022-09-06T20:19:17.660Z,3.88
2022-09-06T20:21:48.307Z,4.32
2022-09-06T20:24:17.085Z,3.58
2022-09-06T20:26:45.428Z,5.05
2022-09-06T20:29:14.183Z,5.43
2022-09-06T20:31:43.459Z,5.13
2022-09-06T20:34:16.059Z,4.22
2022-09-06T20:36:45.232Z,4.35
2022-09-06T20:39:15.363Z,4.80
2022-09-06T20:41:43.764Z,4.20
2022-09-06T20:44:12.231Z,4.30
2022-09-06T20:46:41.490Z,4.30
2022-09-06T20:49:10.702Z,4.97
2022-09-06T20:51:43.123Z,4.28
2022-09-06T20:54:12.624Z,3.70
2022-09-06T20:56:43.132Z,3.72
2022-09-06T20:59:14.124Z,3.47
2022-09-06T21:01:44.526Z,3.90
2022-09-06T21:04:15.836Z,3.40
2022-09-06T21:06:46.135Z,4.10
2022-09-06T21:09:15.706Z,3.50
2022-09-06T21:11:46.880Z,4.05
2022-09-06T21:14:15.340Z,3.47
2022-09-06T21:16:43.864Z,3.95
2022-09-06T21:19:13.127Z,3.50
2022-09-06T21:21:41.932Z,4.20
2022-09-06T21:24:12.240Z,3.70
2022-09-06T21:26:43.322Z,3.85
2022-09-06T21:29:13.800Z,3.67
2022-09-06T21:31:42.992Z,3.55
2022-09-06T21:34:16.971Z,3.60
2022-09-06T21:36:46.851Z,3.85
2022-09-06T21:39:16.042Z,3.60
2022-09-06T21:41:45.318Z,4.50
2022-09-06T21:44:15.204Z,3.97
2022-09-06T21:46:44.750Z,3.63
2022-09-06T21:49:14.721Z,3.55
2022-09-06T21:51:44.434Z,3.42
2022-09-06T21:54:12.911Z,3.95
2022-09-06T21:56:42.297Z,4.00
2022-09-06T21:59:11.518Z,4.40
2022-09-06T22:01:44.884Z,4.00
2022-09-06T22:04:14.880Z,3.70
2022-09-06T22:06:43.259Z,3.78
2022-09-06T22:09:13.412Z,3.90
2022-09-06T22:11:44.299Z,3.55
2022-09-06T22:14:14.855Z,5.15
2022-09-06T22:16:45.356Z,4.03
2022-09-06T22:19:14.524Z,4.60
2022-09-06T22:21:42.973Z,3.67
2022-09-06T22:24:14.657Z,4.10
2022-09-06T22:26:43.752Z,3.85
2022-09-06T22:29:15.053Z,3.83
2022-09-06T22:31:46.125Z,3.55
2022-09-06T22:34:14.616Z,3.70
2022-09-06T22:36:43.916Z,3.70
2022-09-06T22:39:12.378Z,3.78
2022-09-06T22:41:41.530Z,3.58
2022-09-06T22:44:09.911Z,3.90
2022-09-06T22:46:39.096Z,3.45
2022-09-06T22:49:08.859Z,3.85
2022-09-06T22:51:38.177Z,4.05
2022-09-06T22:54:07.331Z,3.75
2022-09-06T22:56:35.754Z,3.63
2022-09-06T22:59:05.363Z,3.92
2022-09-06T23:01:39.174Z,3.90
2022-09-06T23:04:10.743Z,3.63
2022-09-06T23:06:39.242Z,3.72
2022-09-06T23:09:08.707Z,3.88
2022-09-06T23:11:37.496Z,3.60
2022-09-06T23:14:05.916Z,3.80
2022-09-06T23:16:35.118Z,3.83
2022-09-06T23:19:03.600Z,3.80
2022-09-06T23:21:35.268Z,3.90
2022-09-06T23:24:04.517Z,4.13
2022-09-06T23:26:34.195Z,3.95
2022-09-06T23:29:03.028Z,3.53
2022-09-06T23:31:32.878Z,3.20
2022-09-06T23:34:02.470Z,3.45
2022-09-06T23:36:32.812Z,3.83
2022-09-06T23:39:02.793Z,3.60
2022-09-06T23:41:32.294Z,3.35
2022-09-06T23:44:01.802Z,3.75
2022-09-06T23:46:31.463Z,3.38
2022-09-06T23:48:59.865Z,3.60
2022-09-06T23:51:29.107Z,3.35
2022-09-06T23:53:58.340Z,4.00
2022-09-06T23:56:28.911Z,3.42
2022-09-06T23:58:57.467Z,3.13
